Pagrindinis puslapis
METAR-TAF:

METAR-TAF

Oro uostai :

Nakhon Ratchasima, Tailandas

platuma: 14-56-58N, ilguma: 102-18-45E, Aukštis: 233 m

Dabartinis oras

Ataskaita buvo paskelbta 37 minutes, ne 08:00 UTC
Vėjas 10 kt iš Šiaurės/Šiaurės Rytų
Temperatūra 33°C
Drėgmė 36%
Slėgis 1016 hPa
Matomumas 10 km arba daugiau
nėra debesų žemiau 1500 m ir nėra kamuolinių lietaus debesų

METAR: VTUQ 230800Z 02010KT CAVOK 33/16 Q1016 NOSIG

Laikas: 15:37 (08:37 UTC)

Prognozė

Ataskaita buvo paskelbta 3 valandos ir 37 minutes, ne 05:00 UTC
Prognozė galioja nuo 23 metu 06 UTC su 24 metu 06 UTC
Vėjas 8 kt iš Šiaurės Rytų
Matomumas 10 km arba daugiau
nėra debesų žemiau 1500 m ir nėra kamuolinių lietaus debesų

TAF: VTUQ 230500Z 2306/2406 05008KT CAVOK

Orai ataskaitas ir orų prognozės (METAR, TAF).

turimą stotys yra geltonos ir raudonos taškus žemėlapyje.

Perkelti pele per norėdami pamatyti stoties vardą.

Tada spustelėkite, norėdami matyti oro stebėjimo ir prognozės.

Norėdami pakeisti žemėlapį: spustelėkite ant žalios mygtukų su juodo kryžiaus žemyn,; žalią mygtuką su brūkšneliu, jei norite nutolinti; arba žalių rodyklių gretimoms žemėlapius.


METAR-TAF: